Time;durP1;ratioP1;P1;durP2;ratioP2;P2;SDS_P1;SDS_P2;PMS_P1;PMS_P2;Temp;Humidity;BMP_temperature;BMP_pressure;BME280_temperature;BME280_humidity;BME280_pressure;Samples;Min_cycle;Max_cycle;Signal;HPM_P1;HPM_P2
2023/12/20 00:01:19;;;;;;;13.75;10.57;;;8.20;99.90;;;;;;5051235;28;20188;-48
2023/12/20 00:03:45;;;;;;;12.80;8.48;;;8.00;99.90;;;;;;5051287;28;20228;-58
2023/12/20 00:06:11;;;;;;;13.57;9.05;;;8.00;99.90;;;;;;5050942;28;20163;-57
2023/12/20 00:08:36;;;;;;;9.48;5.47;;;8.10;99.90;;;;;;5051149;28;20676;-59
2023/12/20 00:11:02;;;;;;;6.18;3.92;;;8.10;99.90;;;;;;5051157;28;20220;-58
2023/12/20 00:13:27;;;;;;;7.72;4.63;;;7.90;99.90;;;;;;5051037;28;20634;-48
2023/12/20 00:15:53;;;;;;;6.15;5.00;;;8.00;99.90;;;;;;5051576;28;20214;-58
2023/12/20 00:18:18;;;;;;;6.75;5.18;;;8.10;99.90;;;;;;5051131;28;20171;-48
2023/12/20 00:20:44;;;;;;;8.07;4.85;;;8.10;99.90;;;;;;5051283;28;20178;-51
2023/12/20 00:23:10;;;;;;;7.43;5.38;;;8.10;99.90;;;;;;5051114;28;20622;-57
2023/12/20 00:25:35;;;;;;;10.63;6.05;;;7.90;99.90;;;;;;5051209;28;20650;-59
2023/12/20 00:28:02;;;;;;;7.97;5.30;;;7.90;99.90;;;;;;5051134;28;20199;-53
2023/12/20 00:30:27;;;;;;;10.95;6.13;;;8.10;99.90;;;;;;5051229;28;20179;-49
2023/12/20 00:32:53;;;;;;;13.70;5.63;;;8.10;99.90;;;;;;5051490;28;20174;-58
2023/12/20 00:35:19;;;;;;;8.10;5.53;;;8.00;99.90;;;;;;5050897;28;20209;-59
2023/12/20 00:37:44;;;;;;;5.40;4.80;;;7.90;99.90;;;;;;5050903;28;20201;-52
2023/12/20 00:40:10;;;;;;;11.60;6.22;;;7.80;99.90;;;;;;5051147;28;20224;-54
2023/12/20 00:42:36;;;;;;;9.18;7.15;;;7.70;99.90;;;;;;5050899;28;20163;-55
2023/12/20 00:45:04;;;;;;;10.00;5.57;;;7.90;99.90;;;;;;5050833;28;20167;-58
2023/12/20 00:47:30;;;;;;;10.10;7.15;;;7.80;99.90;;;;;;5051159;28;20685;-57
2023/12/20 00:49:56;;;;;;;10.15;5.45;;;8.00;99.90;;;;;;5051266;28;20218;-52
2023/12/20 00:52:22;;;;;;;9.15;6.53;;;8.00;99.90;;;;;;5050788;28;20537;-51
2023/12/20 00:54:48;;;;;;;12.52;7.45;;;8.00;99.90;;;;;;5050466;28;20697;-50
2023/12/20 00:57:14;;;;;;;16.67;7.82;;;7.80;99.90;;;;;;5051285;28;20163;-52
2023/12/20 00:59:39;;;;;;;12.73;7.43;;;7.90;99.90;;;;;;5054510;28;20178;-57
2023/12/20 01:02:05;;;;;;;13.50;9.00;;;7.80;99.90;;;;;;5054384;28;20166;-56
2023/12/20 01:04:30;;;;;;;17.25;9.80;;;7.70;99.90;;;;;;5054033;28;20175;-59
2023/12/20 01:06:56;;;;;;;13.05;8.38;;;7.90;99.90;;;;;;5054197;28;20178;-58
2023/12/20 01:09:26;;;;;;;17.15;10.50;;;7.90;99.90;;;;;;5054056;28;20175;-58
2023/12/20 01:11:52;;;;;;;15.63;10.43;;;7.70;99.90;;;;;;5054485;28;20182;-59
2023/12/20 01:14:17;;;;;;;15.50;9.75;;;7.70;99.90;;;;;;5054156;28;20194;-59
2023/12/20 01:16:43;;;;;;;13.73;9.98;;;7.90;99.90;;;;;;5053880;28;20170;-59
2023/12/20 01:19:08;;;;;;;17.33;11.75;;;7.90;99.90;;;;;;5053917;28;20201;-59
2023/12/20 01:21:34;;;;;;;16.55;11.10;;;7.80;99.90;;;;;;5054048;28;20666;-59
2023/12/20 01:23:59;;;;;;;19.75;12.43;;;7.70;99.90;;;;;;5054073;28;20262;-58
2023/12/20 01:26:25;;;;;;;17.48;10.10;;;7.80;99.90;;;;;;5054374;28;20553;-51
2023/12/20 01:28:50;;;;;;;19.88;12.55;;;7.90;99.90;;;;;;5054186;28;20633;-52
2023/12/20 01:31:16;;;;;;;20.45;11.43;;;7.70;99.90;;;;;;5053815;28;20538;-49
2023/12/20 01:33:41;;;;;;;10.93;7.70;;;7.70;99.90;;;;;;5053459;28;20166;-50
2023/12/20 01:36:07;;;;;;;12.93;7.53;;;7.70;99.90;;;;;;5053668;28;20209;-58
2023/12/20 01:38:33;;;;;;;11.98;8.57;;;7.50;99.90;;;;;;5053980;28;20182;-58
2023/12/20 01:40:59;;;;;;;15.50;9.43;;;7.50;99.90;;;;;;5053657;28;20170;-50
2023/12/20 01:43:25;;;;;;;14.57;9.15;;;7.50;99.90;;;;;;5054267;28;20194;-53
2023/12/20 01:45:51;;;;;;;18.33;8.32;;;7.60;99.90;;;;;;5053875;28;20251;-58
2023/12/20 01:48:17;;;;;;;13.20;5.72;;;7.40;99.90;;;;;;5053511;28;20173;-55
2023/12/20 01:50:43;;;;;;;15.30;6.78;;;7.40;99.90;;;;;;5053550;28;20175;-58
2023/12/20 01:53:11;;;;;;;15.27;8.35;;;7.30;99.90;;;;;;5053522;28;20179;-56
2023/12/20 01:55:39;;;;;;;10.57;6.03;;;7.20;99.90;;;;;;5053368;28;20202;-51
2023/12/20 01:58:09;;;;;;;11.65;4.60;;;7.00;99.90;;;;;;5053624;28;20175;-52
2023/12/20 02:00:36;;;;;;;14.40;4.75;;;7.00;99.90;;;;;;5053580;28;20179;-57
2023/12/20 02:03:02;;;;;;;12.07;4.22;;;7.00;99.90;;;;;;5053567;28;20253;-59
2023/12/20 02:05:32;;;;;;;12.52;3.92;;;7.00;99.90;;;;;;5053203;28;20186;-54
2023/12/20 02:07:58;;;;;;;16.27;4.05;;;7.00;99.90;;;;;;5052747;28;20186;-55
2023/12/20 02:10:24;;;;;;;18.92;3.90;;;7.00;99.90;;;;;;5053623;28;20162;-49
2023/12/20 02:12:50;;;;;;;9.85;3.58;;;6.90;99.90;;;;;;5053108;28;20191;-49
2023/12/20 02:15:16;;;;;;;9.93;3.38;;;6.80;99.90;;;;;;5053010;28;20284;-49
2023/12/20 02:17:41;;;;;;;6.28;3.35;;;6.90;99.90;;;;;;5053022;28;20159;-60
2023/12/20 02:20:07;;;;;;;18.40;3.10;;;6.80;99.90;;;;;;5052948;28;20626;-55
2023/12/20 02:22:33;;;;;;;12.82;3.53;;;6.80;99.90;;;;;;5052822;28;20228;-52
2023/12/20 02:24:58;;;;;;;13.65;3.65;;;6.70;99.90;;;;;;5052716;28;20167;-58
2023/12/20 02:27:24;;;;;;;14.50;3.28;;;6.60;99.90;;;;;;5053108;28;20185;-60
2023/12/20 02:29:50;;;;;;;9.32;3.55;;;6.70;99.90;;;;;;5052757;28;20261;-59
2023/12/20 02:32:20;;;;;;;17.38;2.70;;;6.60;99.90;;;;;;5052721;28;20198;-56
2023/12/20 02:34:47;;;;;;;11.73;2.92;;;6.60;99.90;;;;;;5052174;28;20216;-61
2023/12/20 02:37:13;;;;;;;11.68;3.13;;;6.60;99.90;;;;;;5052005;28;20194;-62
2023/12/20 02:39:38;;;;;;;10.90;2.80;;;6.60;99.90;;;;;;5052189;28;20629;-60
2023/12/20 02:42:04;;;;;;;13.95;3.25;;;6.70;99.90;;;;;;5052004;28;20529;-60
2023/12/20 02:44:30;;;;;;;13.40;2.70;;;6.60;99.90;;;;;;5051928;28;20171;-49
2023/12/20 02:46:55;;;;;;;8.88;2.60;;;6.70;99.90;;;;;;5052384;28;20171;-49
2023/12/20 02:49:21;;;;;;;13.68;3.45;;;6.80;99.90;;;;;;5051976;28;20246;-52
2023/12/20 02:51:46;;;;;;;14.77;3.03;;;6.80;99.90;;;;;;5051856;28;20254;-58
2023/12/20 02:54:12;;;;;;;9.77;2.60;;;6.80;99.90;;;;;;5051583;28;20294;-59
2023/12/20 02:56:37;;;;;;;7.50;2.10;;;6.70;99.90;;;;;;5051783;28;20193;-54
2023/12/20 02:59:05;;;;;;;5.60;2.10;;;6.60;99.90;;;;;;5052176;28;20683;-57
2023/12/20 03:01:31;;;;;;;10.50;2.67;;;6.80;99.90;;;;;;5052210;28;20178;-60
2023/12/20 03:03:57;;;;;;;9.77;2.80;;;6.80;99.90;;;;;;5052311;28;20166;-48
2023/12/20 03:06:23;;;;;;;10.38;2.63;;;6.80;99.90;;;;;;5052531;28;20177;-48
2023/12/20 03:08:49;;;;;;;11.77;2.53;;;6.80;99.90;;;;;;5052360;28;20273;-58
2023/12/20 03:11:14;;;;;;;9.45;2.60;;;6.80;99.90;;;;;;5052039;28;20175;-59
2023/12/20 03:13:40;;;;;;;9.43;2.60;;;6.90;99.90;;;;;;5052044;28;20163;-58
2023/12/20 03:16:10;;;;;;;9.90;2.83;;;6.70;99.90;;;;;;5051928;28;20284;-54
2023/12/20 03:18:35;;;;;;;13.70;3.05;;;6.70;99.90;;;;;;5051898;28;20622;-53
2023/12/20 03:21:01;;;;;;;19.02;3.38;;;6.70;99.90;;;;;;5051223;28;20177;-57
2023/12/20 03:23:27;;;;;;;10.80;3.15;;;6.70;99.90;;;;;;5052605;28;20194;-58
2023/12/20 03:25:52;;;;;;;14.93;3.58;;;6.80;99.90;;;;;;5051876;28;20179;-52
2023/12/20 03:28:19;;;;;;;15.52;3.10;;;6.90;99.90;;;;;;5051621;28;20197;-49
2023/12/20 03:30:44;;;;;;;12.98;3.35;;;6.80;99.90;;;;;;5051596;28;20174;-50
2023/12/20 03:33:10;;;;;;;13.90;3.25;;;6.70;99.90;;;;;;5051491;28;20169;-50
2023/12/20 03:35:36;;;;;;;11.15;4.80;;;6.70;99.90;;;;;;5051681;28;20210;-49
2023/12/20 03:38:01;;;;;;;8.55;2.78;;;6.70;99.90;;;;;;5051673;28;20237;-50
2023/12/20 03:40:27;;;;;;;9.88;3.08;;;6.80;99.90;;;;;;5052214;28;20170;-49
2023/12/20 03:42:52;;;;;;;17.80;3.33;;;6.80;99.90;;;;;;5051728;28;20178;-50
2023/12/20 03:45:18;;;;;;;12.05;3.20;;;6.90;99.90;;;;;;5051457;28;20171;-50
2023/12/20 03:47:43;;;;;;;18.48;3.80;;;6.90;99.90;;;;;;5051452;28;20182;-53
2023/12/20 03:50:09;;;;;;;13.13;3.33;;;6.90;99.90;;;;;;5051416;28;20532;-50
2023/12/20 03:52:35;;;;;;;13.57;3.47;;;6.80;99.90;;;;;;5051252;28;20586;-52
2023/12/20 03:55:00;;;;;;;12.52;3.20;;;6.80;99.90;;;;;;5051075;28;20230;-53
2023/12/20 03:57:26;;;;;;;14.52;3.45;;;6.80;99.90;;;;;;5051771;28;20206;-52
2023/12/20 03:59:51;;;;;;;12.75;3.10;;;6.70;99.90;;;;;;5051218;28;20163;-51
2023/12/20 04:02:17;;;;;;;11.02;3.33;;;6.90;99.90;;;;;;5050876;28;20206;-50
2023/12/20 04:04:43;;;;;;;14.82;3.60;;;6.60;99.90;;;;;;5051443;28;20177;-51
2023/12/20 04:07:09;;;;;;;16.20;4.43;;;6.80;99.90;;;;;;5051196;28;20586;-57
2023/12/20 04:09:34;;;;;;;15.23;3.88;;;6.60;99.90;;;;;;5050084;28;20167;-52
2023/12/20 04:12:00;;;;;;;14.73;3.63;;;6.60;99.90;;;;;;5051111;28;20185;-51
2023/12/20 04:14:25;;;;;;;14.18;4.38;;;6.60;99.90;;;;;;5051579;28;20204;-57
2023/12/20 04:16:51;;;;;;;10.45;3.28;;;6.60;99.90;;;;;;5051145;28;20170;-55
2023/12/20 04:19:16;;;;;;;10.85;3.83;;;6.80;99.90;;;;;;5051098;28;20177;-54
2023/12/20 04:21:42;;;;;;;11.05;3.40;;;6.60;99.90;;;;;;5051158;28;20220;-50
2023/12/20 04:24:08;;;;;;;11.50;3.67;;;6.50;99.90;;;;;;5051375;28;20174;-52
2023/12/20 04:26:33;;;;;;;11.63;3.92;;;6.50;99.90;;;;;;5051293;28;20622;-49
2023/12/20 04:28:59;;;;;;;15.60;4.60;;;6.50;99.90;;;;;;5051088;28;20216;-52
2023/12/20 04:31:24;;;;;;;14.32;4.68;;;6.50;99.90;;;;;;5052033;28;20554;-56
2023/12/20 04:33:50;;;;;;;15.25;4.22;;;6.60;99.90;;;;;;5055115;28;20186;-57
2023/12/20 04:36:15;;;;;;;15.77;3.83;;;6.50;99.90;;;;;;5054851;28;20198;-57
2023/12/20 04:38:41;;;;;;;12.45;4.50;;;6.40;99.90;;;;;;5054892;28;20254;-60
2023/12/20 04:41:06;;;;;;;11.93;4.57;;;6.50;99.90;;;;;;5054875;28;20175;-60
2023/12/20 04:43:32;;;;;;;21.40;4.20;;;6.30;99.90;;;;;;5054673;28;20189;-60
2023/12/20 04:45:58;;;;;;;9.90;3.70;;;6.50;99.90;;;;;;5054747;28;20585;-49
2023/12/20 04:48:23;;;;;;;11.70;4.10;;;6.50;99.90;;;;;;5055102;28;20175;-55
2023/12/20 04:50:49;;;;;;;6.95;2.60;;;6.40;99.90;;;;;;5054577;28;20174;-57
2023/12/20 04:53:14;;;;;;;14.27;4.47;;;6.30;99.90;;;;;;5054424;28;20166;-56
2023/12/20 04:55:40;;;;;;;17.33;4.13;;;6.50;99.90;;;;;;5054435;28;20565;-55
2023/12/20 04:58:05;;;;;;;10.57;3.78;;;6.30;99.90;;;;;;5054444;28;20236;-58
2023/12/20 05:00:31;;;;;;;12.48;4.15;;;6.30;99.90;;;;;;5054178;28;20207;-58
2023/12/20 05:02:56;;;;;;;22.75;3.53;;;6.40;99.90;;;;;;5055134;28;20174;-55
2023/12/20 05:05:22;;;;;;;12.40;3.72;;;6.40;99.90;;;;;;5054344;28;20539;-55
2023/12/20 05:07:47;;;;;;;13.93;4.32;;;6.30;99.90;;;;;;5054313;28;20174;-55
2023/12/20 05:10:13;;;;;;;21.08;4.07;;;6.30;99.90;;;;;;5054100;28;20182;-52
2023/12/20 05:12:39;;;;;;;15.50;4.15;;;6.40;99.90;;;;;;5054322;28;20174;-57
2023/12/20 05:15:06;;;;;;;12.43;4.38;;;6.20;99.90;;;;;;5054387;28;20662;-53
2023/12/20 05:17:32;;;;;;;9.80;4.07;;;6.30;99.90;;;;;;5052868;28;20574;-52
2023/12/20 05:19:57;;;;;;;23.23;4.05;;;6.30;99.90;;;;;;5054294;28;20175;-48
2023/12/20 05:22:23;;;;;;;15.45;3.92;;;6.20;99.90;;;;;;5054289;28;20207;-49
2023/12/20 05:24:49;;;;;;;11.40;3.72;;;6.20;99.90;;;;;;5053621;28;20173;-57
2023/12/20 05:27:14;;;;;;;16.48;4.40;;;6.30;99.90;;;;;;5054248;28;20167;-53
2023/12/20 05:29:40;;;;;;;18.77;5.15;;;6.30;99.90;;;;;;5054223;28;20649;-51
2023/12/20 05:32:05;;;;;;;8.40;3.38;;;6.30;99.90;;;;;;5052693;28;20626;-52
2023/12/20 05:34:31;;;;;;;8.77;3.60;;;6.20;99.90;;;;;;5041019;28;20195;-50
2023/12/20 05:36:57;;;;;;;9.10;3.33;;;6.10;99.90;;;;;;5053667;28;20162;-53
2023/12/20 05:39:23;;;;;;;13.45;4.05;;;6.30;99.90;;;;;;5053698;28;20159;-51
2023/12/20 05:41:49;;;;;;;13.15;2.85;;;6.20;99.90;;;;;;5053060;28;20174;-49
2023/12/20 05:44:14;;;;;;;10.95;3.63;;;6.20;99.90;;;;;;5052539;28;20196;-49
2023/12/20 05:46:40;;;;;;;10.82;3.85;;;6.30;99.90;;;;;;5053401;28;20201;-48
2023/12/20 05:49:06;;;;;;;13.70;3.90;;;6.20;99.90;;;;;;5053008;28;20173;-49
2023/12/20 05:51:31;;;;;;;9.15;3.50;;;6.30;99.90;;;;;;5053039;28;20177;-50
2023/12/20 05:53:57;;;;;;;12.10;3.72;;;6.30;99.90;;;;;;5053147;28;20220;-49
2023/12/20 05:56:22;;;;;;;10.73;2.90;;;6.40;99.90;;;;;;5052867;28;20549;-57
2023/12/20 05:58:48;;;;;;;9.70;3.30;;;6.40;99.90;;;;;;5052908;28;20181;-52
2023/12/20 06:01:17;;;;;;;10.50;3.33;;;6.30;99.90;;;;;;5052358;28;20650;-48
2023/12/20 06:03:43;;;;;;;17.95;4.00;;;6.30;99.90;;;;;;5052423;28;20661;-48
2023/12/20 06:06:09;;;;;;;15.55;3.33;;;6.30;99.90;;;;;;5053021;28;20202;-48
2023/12/20 06:08:34;;;;;;;15.57;3.17;;;6.30;99.90;;;;;;5052802;28;20167;-52
2023/12/20 06:11:00;;;;;;;12.30;3.85;;;6.40;99.90;;;;;;5052947;28;20173;-51
2023/12/20 06:13:26;;;;;;;11.10;3.10;;;6.40;99.90;;;;;;5053099;28;20595;-49
2023/12/20 06:15:54;;;;;;;17.60;3.63;;;6.30;99.90;;;;;;5052476;28;20237;-52
2023/12/20 06:18:19;;;;;;;14.73;3.85;;;6.50;99.90;;;;;;5052594;28;20159;-55
2023/12/20 06:20:45;;;;;;;16.85;3.15;;;6.50;99.90;;;;;;5052455;28;20513;-54
2023/12/20 06:23:10;;;;;;;19.42;3.50;;;6.50;99.90;;;;;;5052311;28;20163;-51
2023/12/20 06:25:36;;;;;;;7.07;3.08;;;6.50;99.90;;;;;;5052338;28;20163;-54
2023/12/20 06:28:01;;;;;;;11.63;3.53;;;6.40;99.90;;;;;;5052225;28;20167;-50
2023/12/20 06:30:27;;;;;;;7.63;3.63;;;6.50;99.90;;;;;;5052441;28;20190;-52
2023/12/20 06:32:54;;;;;;;11.05;3.10;;;6.50;99.90;;;;;;5052535;28;20186;-53
2023/12/20 06:35:19;;;;;;;14.65;3.80;;;6.60;99.90;;;;;;5052178;28;20210;-50
2023/12/20 06:37:45;;;;;;;13.02;2.90;;;6.60;99.90;;;;;;5052274;28;20541;-54
2023/12/20 06:40:11;;;;;;;9.32;3.58;;;6.60;99.90;;;;;;5051804;28;20209;-53
2023/12/20 06:42:37;;;;;;;14.50;3.72;;;6.40;99.90;;;;;;5052274;28;20213;-48
2023/12/20 06:45:03;;;;;;;12.68;3.58;;;6.60;99.90;;;;;;5052007;28;20166;-49
2023/12/20 06:47:29;;;;;;;13.43;2.85;;;6.50;99.90;;;;;;5051911;28;20179;-48
2023/12/20 06:49:54;;;;;;;11.25;3.30;;;6.50;99.90;;;;;;5052405;28;20167;-50
2023/12/20 06:52:20;;;;;;;10.18;3.08;;;6.50;99.90;;;;;;5051822;28;20573;-50
2023/12/20 06:54:45;;;;;;;15.90;3.55;;;6.50;99.90;;;;;;5050717;28;20226;-53
2023/12/20 06:57:11;;;;;;;10.68;2.97;;;6.50;99.90;;;;;;5051526;28;20216;-49
2023/12/20 06:59:40;;;;;;;14.35;4.28;;;6.60;99.90;;;;;;5051821;28;20178;-49
2023/12/20 07:02:06;;;;;;;10.30;3.63;;;6.60;99.90;;;;;;5051443;28;20579;-48
2023/12/20 07:04:32;;;;;;;11.50;3.35;;;6.60;99.90;;;;;;5051468;28;20257;-49
2023/12/20 07:07:00;;;;;;;19.98;3.88;;;6.50;99.90;;;;;;5051768;28;20202;-48
2023/12/20 07:09:26;;;;;;;15.15;3.00;;;6.50;99.90;;;;;;5052137;28;20175;-49
2023/12/20 07:11:52;;;;;;;12.70;3.88;;;6.50;99.90;;;;;;5051514;28;20208;-50
2023/12/20 07:14:17;;;;;;;13.65;4.10;;;6.60;99.90;;;;;;5051496;28;20169;-50
2023/12/20 07:16:43;;;;;;;7.70;3.10;;;6.50;99.90;;;;;;5051339;28;20261;-50
2023/12/20 07:19:09;;;;;;;10.10;3.38;;;6.60;99.90;;;;;;5051217;28;20201;-49
2023/12/20 07:21:34;;;;;;;16.30;3.70;;;6.50;99.90;;;;;;5051282;28;20167;-50
2023/12/20 07:24:00;;;;;;;7.70;3.35;;;6.60;99.90;;;;;;5051229;28;20162;-49
2023/12/20 07:26:25;;;;;;;10.80;3.13;;;6.50;99.90;;;;;;5051690;28;20174;-50
2023/12/20 07:28:51;;;;;;;31.48;4.32;;;6.60;99.90;;;;;;5051089;28;20288;-49
2023/12/20 07:31:16;;;;;;;16.70;4.00;;;6.50;99.90;;;;;;5050788;28;20182;-49
2023/12/20 07:33:42;;;;;;;9.95;3.65;;;6.60;99.90;;;;;;5051212;28;20182;-49
2023/12/20 07:36:07;;;;;;;11.93;3.83;;;6.50;99.90;;;;;;5051034;28;20218;-50
2023/12/20 07:38:33;;;;;;;12.55;4.18;;;6.50;99.90;;;;;;5051025;28;20240;-52
2023/12/20 07:40:59;;;;;;;15.55;3.92;;;6.60;99.90;;;;;;5051010;28;20599;-50
2023/12/20 07:43:25;;;;;;;12.27;3.60;;;6.60;99.90;;;;;;5051334;28;20614;-51
2023/12/20 07:45:50;;;;;;;27.88;4.78;;;6.50;99.90;;;;;;5050868;28;20221;-53
2023/12/20 07:48:16;;;;;;;15.38;5.50;;;6.50;99.90;;;;;;5051123;28;20182;-52
2023/12/20 07:50:42;;;;;;;12.63;3.67;;;6.60;99.90;;;;;;5050942;28;20614;-48
2023/12/20 07:53:08;;;;;;;13.88;4.00;;;6.50;99.90;;;;;;5050730;28;20205;-51
2023/12/20 07:55:34;;;;;;;10.30;4.55;;;6.60;99.90;;;;;;5050724;28;20209;-49
2023/12/20 07:58:00;;;;;;;11.07;4.03;;;6.60;99.90;;;;;;5050982;28;20246;-51
2023/12/20 08:00:25;;;;;;;14.82;4.07;;;6.50;99.90;;;;;;5051084;28;20588;-48
2023/12/20 08:02:51;;;;;;;11.77;3.67;;;6.50;99.90;;;;;;5050498;28;20182;-48
2023/12/20 08:05:16;;;;;;;13.30;4.20;;;6.50;99.90;;;;;;5050831;28;20740;-48
2023/12/20 08:07:42;;;;;;;15.05;4.13;;;6.40;99.90;;;;;;5050557;28;20234;-49
2023/12/20 08:10:08;;;;;;;16.48;4.50;;;6.50;99.90;;;;;;5050711;28;20687;-50
2023/12/20 08:12:34;;;;;;;14.88;4.10;;;6.40;99.90;;;;;;5051041;28;20572;-51
2023/12/20 08:14:59;;;;;;;15.82;3.63;;;6.50;99.90;;;;;;5050511;28;20669;-49
2023/12/20 08:17:25;;;;;;;20.73;4.70;;;6.50;99.90;;;;;;5051109;28;20178;-53
2023/12/20 08:19:51;;;;;;;16.25;3.92;;;6.40;99.90;;;;;;5050963;28;20171;-61
2023/12/20 08:22:16;;;;;;;10.20;3.63;;;6.30;99.90;;;;;;5050741;28;20629;-61
2023/12/20 08:24:42;;;;;;;16.60;3.53;;;6.40;99.90;;;;;;5050870;28;20181;-60
2023/12/20 08:27:09;;;;;;;15.48;4.13;;;6.40;99.90;;;;;;5050790;28;20622;-60
2023/12/20 08:29:35;;;;;;;8.65;3.80;;;6.40;99.90;;;;;;5050618;28;20170;-60
2023/12/20 08:32:00;;;;;;;12.23;3.92;;;6.30;99.90;;;;;;5050279;28;20173;-60
2023/12/20 08:34:26;;;;;;;16.08;4.32;;;6.40;99.90;;;;;;5050097;28;20179;-59
2023/12/20 08:36:51;;;;;;;17.20;4.05;;;6.50;99.90;;;;;;5049162;28;20171;-60
2023/12/20 08:39:17;;;;;;;12.73;3.45;;;6.50;99.90;;;;;;5049147;28;20240;-56
2023/12/20 08:41:43;;;;;;;9.90;3.20;;;6.60;99.90;;;;;;5049048;28;20167;-60
2023/12/20 08:44:09;;;;;;;15.98;3.70;;;6.50;99.90;;;;;;5048956;28;20175;-57
2023/12/20 08:46:35;;;;;;;4.13;2.75;;;6.70;99.90;;;;;;5048894;28;20217;-62
2023/12/20 08:49:01;;;;;;;13.98;3.28;;;6.50;99.90;;;;;;5048725;28;20163;-64
2023/12/20 08:51:27;;;;;;;12.77;3.60;;;6.50;99.90;;;;;;5048815;28;20649;-50
2023/12/20 08:53:53;;;;;;;12.63;4.05;;;6.60;99.90;;;;;;5049069;28;20230;-60
2023/12/20 08:56:19;;;;;;;13.82;3.75;;;6.60;99.90;;;;;;5049067;28;20206;-63
2023/12/20 08:58:46;;;;;;;11.23;3.10;;;6.70;99.90;;;;;;5049124;28;20246;-61
2023/12/20 09:01:13;;;;;;;14.02;2.80;;;6.60;99.90;;;;;;5049036;28;20282;-61
2023/12/20 09:03:39;;;;;;;15.15;3.28;;;6.50;99.90;;;;;;5049069;28;20198;-62
2023/12/20 09:06:05;;;;;;;14.80;4.65;;;6.70;99.90;;;;;;5048870;28;20171;-65
2023/12/20 09:08:31;;;;;;;16.92;3.97;;;6.60;99.90;;;;;;5048930;28;20574;-62
2023/12/20 09:10:56;;;;;;;16.70;3.65;;;6.70;99.90;;;;;;5049288;28;20206;-61
2023/12/20 09:13:27;;;;;;;8.20;3.45;;;8.80;99.90;;;;;;5048034;28;20190;-60
2023/12/20 09:15:56;;;;;;;8.82;2.80;;;6.60;99.90;;;;;;5049466;28;20225;-60
2023/12/20 09:18:22;;;;;;;18.17;3.53;;;6.70;99.90;;;;;;5049468;28;20190;-62
2023/12/20 09:20:47;;;;;;;12.70;2.70;;;6.60;99.90;;;;;;5052426;28;20194;-58
2023/12/20 09:23:13;;;;;;;13.48;2.92;;;6.70;99.90;;;;;;5052238;28;20175;-61
2023/12/20 09:25:38;;;;;;;7.57;3.17;;;6.80;99.90;;;;;;5052118;28;20266;-61
2023/12/20 09:28:04;;;;;;;11.02;3.67;;;8.50;99.90;;;;;;5052131;28;20191;-52
2023/12/20 09:30:30;;;;;;;9.35;2.72;;;6.70;99.90;;;;;;5051906;28;20186;-53
2023/12/20 09:32:57;;;;;;;29.05;3.13;;;6.80;99.90;;;;;;5052770;28;20186;-56
2023/12/20 09:35:23;;;;;;;13.05;2.90;;;6.80;99.90;;;;;;5052534;28;20206;-63
2023/12/20 09:37:49;;;;;;;9.82;2.67;;;6.80;99.90;;;;;;5051908;28;20171;-59
2023/12/20 09:40:18;;;;;;;9.90;2.47;;;6.80;99.90;;;;;;5051994;28;20593;-62
2023/12/20 09:42:58;;;;;;;9.98;2.90;;;6.70;99.90;;;;;;5051885;28;20194;-62
2023/12/20 09:45:24;;;;;;;18.65;4.03;;;6.80;99.90;;;;;;5052694;28;20178;-62
2023/12/20 09:47:52;;;;;;;7.00;2.55;;;6.80;99.90;;;;;;5051617;28;20167;-60
2023/12/20 09:50:19;;;;;;;10.00;2.42;;;6.80;99.90;;;;;;5051759;28;20178;-60
2023/12/20 09:52:49;;;;;;;10.05;3.95;;;6.80;99.90;;;;;;5051860;28;20178;-62
2023/12/20 09:55:16;;;;;;;9.13;3.53;;;6.80;99.90;;;;;;5051384;28;20226;-62
2023/12/20 09:57:42;;;;;;;12.20;3.28;;;6.90;99.90;;;;;;5051812;28;20185;-59
2023/12/20 10:00:08;;;;;;;9.63;3.33;;;6.90;99.90;;;;;;5049951;28;20178;-62
2023/12/20 10:02:36;;;;;;;10.90;2.80;;;6.90;99.90;;;;;;5051379;28;20170;-62
2023/12/20 10:05:03;;;;;;;12.85;3.00;;;7.00;99.90;;;;;;5051356;28;20175;-61
2023/12/20 10:07:28;;;;;;;14.10;3.70;;;6.90;99.90;;;;;;5051455;28;20174;-60
2023/12/20 10:09:55;;;;;;;5.90;3.00;;;7.10;99.90;;;;;;5050833;28;20186;-61
2023/12/20 10:12:21;;;;;;;12.52;3.40;;;7.10;99.90;;;;;;5051340;28;20163;-61
2023/12/20 10:14:47;;;;;;;13.20;4.18;;;7.10;99.90;;;;;;5051279;28;20665;-61
2023/12/20 10:17:12;;;;;;;5.07;2.88;;;7.20;99.90;;;;;;5051265;28;20537;-59
2023/12/20 10:19:38;;;;;;;13.45;3.88;;;7.10;99.90;;;;;;5051183;28;20175;-55
2023/12/20 10:22:06;;;;;;;8.57;2.88;;;7.10;99.90;;;;;;5051187;28;20193;-59
2023/12/20 10:24:32;;;;;;;12.77;3.25;;;7.20;99.90;;;;;;5051080;28;20218;-59
2023/12/20 10:27:05;;;;;;;10.10;4.15;;;7.10;99.90;;;;;;5051001;28;20186;-56
2023/12/20 10:29:35;;;;;;;21.77;4.07;;;7.20;99.90;;;;;;5050592;28;20246;-50
2023/12/20 10:32:27;;;;;;;13.30;3.63;;;7.20;99.90;;;;;;5051016;28;20465;-55
2023/12/20 10:34:54;;;;;;;6.88;2.08;;;7.20;99.90;;;;;;5051300;28;20198;-52
2023/12/20 10:37:20;;;;;;;10.63;3.05;;;7.10;99.90;;;;;;5050845;28;20626;-48
2023/12/20 10:39:51;;;;;;;15.13;2.92;;;7.20;99.90;;;;;;5050759;28;20174;-49
2023/12/20 10:42:19;;;;;;;13.25;2.70;;;7.30;99.90;;;;;;5051095;28;20179;-45
2023/12/20 10:44:46;;;;;;;10.10;3.58;;;7.20;99.90;;;;;;5050834;28;20202;-49
2023/12/20 10:47:13;;;;;;;7.35;2.60;;;7.20;99.90;;;;;;5051054;28;20183;-49
2023/12/20 10:49:40;;;;;;;15.40;3.42;;;7.20;99.90;;;;;;5050630;28;20170;-46
2023/12/20 10:52:07;;;;;;;6.47;2.35;;;7.20;99.90;;;;;;5050558;28;20171;-46
2023/12/20 10:54:33;;;;;;;7.95;2.63;;;7.20;99.90;;;;;;5050525;28;20227;-46
2023/12/20 10:57:00;;;;;;;15.13;3.83;;;7.20;99.90;;;;;;5050481;28;20201;-50
2023/12/20 10:59:27;;;;;;;8.77;3.05;;;7.20;99.90;;;;;;5050676;28;20163;-44
2023/12/20 11:01:56;;;;;;;12.15;2.80;;;7.20;99.90;;;;;;5050895;28;20178;-52
2023/12/20 11:04:35;;;;;;;7.30;2.35;;;7.20;99.90;;;;;;5050865;28;20171;-43
2023/12/20 11:07:33;;;;;;;11.60;3.00;;;7.20;99.90;;;;;;5050300;28;20193;-51
2023/12/20 11:10:10;;;;;;;11.60;3.25;;;7.10;99.90;;;;;;5049239;28;20232;-48
2023/12/20 11:12:52;;;;;;;4.68;2.00;;;7.20;99.90;;;;;;5049058;28;20166;-43
2023/12/20 11:15:19;;;;;;;15.25;3.33;;;7.20;99.90;;;;;;5050291;28;20214;-45
2023/12/20 11:17:48;;;;;;;10.10;2.50;;;7.30;99.90;;;;;;5050035;28;20177;-48
2023/12/20 11:20:14;;;;;;;11.88;3.30;;;7.30;99.90;;;;;;5050129;28;20175;-54
2023/12/20 11:22:54;;;;;;;10.65;2.88;;;7.40;99.90;;;;;;5050019;28;20580;-50
2023/12/20 11:25:20;;;;;;;13.88;2.80;;;7.30;99.90;;;;;;5048746;28;20181;-47
2023/12/20 11:28:07;;;;;;;11.32;3.05;;;7.30;99.90;;;;;;5049936;28;20185;-47
2023/12/20 11:30:53;;;;;;;11.43;4.07;;;7.40;99.90;;;;;;5049505;28;20210;-49
2023/12/20 11:33:30;;;;;;;13.43;3.25;;;7.40;99.90;;;;;;5049960;28;20185;-45
2023/12/20 11:35:57;;;;;;;7.68;2.70;;;7.50;99.90;;;;;;5050136;28;20665;-48
2023/12/20 11:38:23;;;;;;;14.65;3.35;;;7.50;99.90;;;;;;5050232;28;20167;-46
2023/12/20 11:40:50;;;;;;;11.80;2.63;;;7.50;99.90;;;;;;5049286;28;20159;-47
2023/12/20 11:43:35;;;;;;;14.73;3.28;;;7.50;99.90;;;;;;5049633;28;20605;-50
2023/12/20 11:46:10;;;;;;;14.90;3.75;;;7.50;99.90;;;;;;5049925;28;20247;-50
2023/12/20 11:48:38;;;;;;;5.85;2.25;;;7.40;99.90;;;;;;5049667;28;20250;-52
2023/12/20 11:51:13;;;;;;;13.30;3.42;;;7.40;99.90;;;;;;5049819;28;20202;-53
2023/12/20 11:53:40;;;;;;;7.68;2.55;;;7.40;99.90;;;;;;5049418;28;20280;-56
2023/12/20 11:56:06;;;;;;;11.00;2.88;;;7.40;99.90;;;;;;5049702;28;20214;-57
2023/12/20 11:58:33;;;;;;;6.30;2.97;;;7.40;99.90;;;;;;5049527;28;20216;-49
2023/12/20 12:00:59;;;;;;;10.65;3.97;;;7.30;99.90;;;;;;5049271;28;20630;-55
2023/12/20 12:03:24;;;;;;;7.00;3.20;;;7.30;99.90;;;;;;5049948;28;20262;-61
2023/12/20 12:05:50;;;;;;;16.73;3.88;;;7.40;99.90;;;;;;5049362;28;20576;-54
2023/12/20 12:08:17;;;;;;;8.88;3.20;;;7.40;99.90;;;;;;5049233;28;20899;-59
2023/12/20 12:10:44;;;;;;;10.27;2.88;;;7.40;99.90;;;;;;5049380;28;20190;-54
2023/12/20 12:13:09;;;;;;;10.23;2.67;;;7.40;99.90;;;;;;5049368;28;20191;-57
2023/12/20 12:15:36;;;;;;;22.63;2.85;;;7.40;99.90;;;;;;5049338;28;20256;-54
2023/12/20 12:18:02;;;;;;;12.20;2.80;;;7.40;99.90;;;;;;5049316;28;20249;-63
2023/12/20 12:20:27;;;;;;;9.00;2.90;;;7.40;99.90;;;;;;5049285;28;20573;-59
2023/12/20 12:23:02;;;;;;;11.40;3.13;;;7.40;99.90;;;;;;5049694;28;20174;-58
2023/12/20 12:25:30;;;;;;;9.77;3.13;;;7.40;99.90;;;;;;5049334;28;20167;-59
2023/12/20 12:27:56;;;;;;;12.90;2.83;;;7.40;99.90;;;;;;5049869;28;20187;-57
2023/12/20 12:30:22;;;;;;;9.00;3.08;;;7.50;99.90;;;;;;5049052;28;20261;-56
2023/12/20 12:32:47;;;;;;;10.20;3.53;;;7.50;99.90;;;;;;5049100;28;20278;-61
2023/12/20 12:35:14;;;;;;;6.07;3.10;;;7.50;99.90;;;;;;5049019;28;20206;-58
2023/12/20 12:37:41;;;;;;;13.32;3.53;;;7.50;99.90;;;;;;5049089;28;20179;-61
2023/12/20 12:40:11;;;;;;;9.25;2.95;;;7.50;99.90;;;;;;5049147;28;20171;-56
2023/12/20 12:42:41;;;;;;;10.15;3.78;;;7.50;99.90;;;;;;5049126;28;20163;-57
2023/12/20 12:45:07;;;;;;;15.05;3.72;;;7.60;99.90;;;;;;5048984;28;20167;-61